Time;durP1;ratioP1;P1;durP2;ratioP2;P2;SDS_P1;SDS_P2;PMS_P1;PMS_P2;Temp;Humidity;BMP_temperature;BMP_pressure;BME280_temperature;BME280_humidity;BME280_pressure;Samples;Min_cycle;Max_cycle;Signal;HPM_P1;HPM_P2
2023/01/20 00:02:17;;;;;;;1.58;1.48;;;-0.40;99.90;;;;;;5110641;27;20218;-70
2023/01/20 00:04:44;;;;;;;1.00;1.00;;;-0.40;99.90;;;;;;5118533;27;20228;-69
2023/01/20 00:07:10;;;;;;;1.40;1.20;;;0.00;99.90;;;;;;5117591;27;20225;-69
2023/01/20 00:09:37;;;;;;;5.38;1.80;;;-0.40;99.90;;;;;;5118190;27;20195;-69
2023/01/20 00:12:04;;;;;;;0.85;0.85;;;-0.30;99.90;;;;;;5130699;27;20232;-69
2023/01/20 00:14:31;;;;;;;1.55;1.45;;;-0.30;99.90;;;;;;5131333;27;20201;-70
2023/01/20 00:16:59;;;;;;;1.25;1.25;;;-0.40;99.90;;;;;;5130212;27;20344;-70
2023/01/20 00:19:27;;;;;;;2.00;1.90;;;-0.30;99.90;;;;;;5130913;27;20200;-69
2023/01/20 00:21:54;;;;;;;1.70;1.60;;;-0.50;99.90;;;;;;5130042;27;20223;-70
2023/01/20 00:24:21;;;;;;;1.50;1.45;;;-0.30;99.90;;;;;;5124300;27;20205;-70
2023/01/20 00:26:47;;;;;;;1.92;1.85;;;-0.30;99.90;;;;;;5130257;27;20217;-70
2023/01/20 00:29:14;;;;;;;1.17;1.17;;;-0.30;99.90;;;;;;5130155;27;20208;-70
2023/01/20 00:31:41;;;;;;;2.97;2.78;;;0.10;99.90;;;;;;5130224;27;20228;-69
2023/01/20 00:34:10;;;;;;;1.50;1.40;;;-0.20;99.90;;;;;;5130637;27;20718;-69
2023/01/20 00:36:38;;;;;;;2.80;2.17;;;-0.20;99.90;;;;;;5128359;27;20270;-70
2023/01/20 00:39:05;;;;;;;1.10;0.90;;;-0.20;99.90;;;;;;5121176;27;20200;-69
2023/01/20 00:41:32;;;;;;;1.77;1.67;;;-0.20;99.90;;;;;;5118991;27;20229;-70
2023/01/20 00:43:59;;;;;;;1.25;1.13;;;-0.10;99.90;;;;;;5109875;28;20209;-69
2023/01/20 00:46:26;;;;;;;1.80;1.70;;;-0.20;99.90;;;;;;5110130;27;20229;-70
2023/01/20 00:48:53;;;;;;;0.40;0.40;;;-0.10;99.90;;;;;;5109818;28;20531;-69
2023/01/20 00:51:21;;;;;;;2.38;2.28;;;-0.20;99.90;;;;;;5120223;27;20227;-68
2023/01/20 00:53:49;;;;;;;5.45;2.28;;;-0.10;99.90;;;;;;5129656;27;20193;-68
2023/01/20 00:56:16;;;;;;;3.17;1.33;;;0.00;99.90;;;;;;5129990;27;20576;-69
2023/01/20 00:58:44;;;;;;;0.55;0.55;;;-0.20;99.90;;;;;;5129371;27;20198;-69
2023/01/20 01:01:11;;;;;;;1.40;1.30;;;-0.20;99.90;;;;;;5119322;27;20210;-69
2023/01/20 01:03:38;;;;;;;7.03;1.92;;;-0.10;99.90;;;;;;5114911;27;20267;-68
2023/01/20 01:06:10;;;;;;;0.50;0.50;;;-0.20;99.90;;;;;;5125148;27;20240;-69
2023/01/20 01:08:36;;;;;;;0.77;0.77;;;-0.10;99.90;;;;;;5110114;27;20202;-70
2023/01/20 01:11:05;;;;;;;1.02;1.02;;;-0.20;99.90;;;;;;5112152;27;20218;-68
2023/01/20 01:13:33;;;;;;;1.98;1.33;;;-0.20;99.90;;;;;;5110061;28;20513;-70
2023/01/20 01:16:00;;;;;;;2.67;2.47;;;-0.20;99.90;;;;;;5109722;27;20218;-69
2023/01/20 01:18:26;;;;;;;1.50;1.30;;;-0.20;99.90;;;;;;5109208;28;20205;-69
2023/01/20 01:20:53;;;;;;;1.48;1.13;;;-0.10;99.90;;;;;;5115786;27;20213;-69
2023/01/20 01:23:20;;;;;;;1.27;1.25;;;-0.20;99.90;;;;;;5130057;27;20211;-70
2023/01/20 01:25:47;;;;;;;1.30;1.20;;;-0.10;99.90;;;;;;5126655;27;20229;-69
2023/01/20 01:28:15;;;;;;;1.35;1.13;;;-0.20;99.90;;;;;;5113082;27;20202;-70
2023/01/20 01:30:42;;;;;;;5.28;2.00;;;-0.10;99.90;;;;;;5120246;27;20308;-70
2023/01/20 01:33:08;;;;;;;1.17;1.08;;;-0.10;99.90;;;;;;5129910;27;20211;-69
2023/01/20 01:35:35;;;;;;;1.27;1.10;;;-0.20;99.90;;;;;;5129287;27;20232;-69
2023/01/20 01:38:02;;;;;;;2.95;2.85;;;-0.10;99.90;;;;;;5117946;27;20213;-70
2023/01/20 01:40:29;;;;;;;13.15;2.70;;;-0.10;99.90;;;;;;5128462;27;20402;-69
2023/01/20 01:42:55;;;;;;;1.58;1.23;;;-0.10;99.90;;;;;;5129410;27;20204;-69
2023/01/20 01:45:28;;;;;;;1.52;0.90;;;0.00;99.90;;;;;;5128952;27;20227;-69
2023/01/20 01:48:01;;;;;;;2.83;2.60;;;-0.10;99.90;;;;;;5129205;27;20292;-70
2023/01/20 01:50:34;;;;;;;2.80;2.70;;;-0.10;99.90;;;;;;5129396;27;20213;-70
2023/01/20 01:53:01;;;;;;;1.02;1.02;;;-0.10;99.90;;;;;;5129372;27;20208;-69
2023/01/20 01:55:31;;;;;;;3.05;1.60;;;-0.20;99.90;;;;;;5129255;27;20220;-69
2023/01/20 01:57:59;;;;;;;2.05;1.73;;;0.20;99.90;;;;;;5129073;27;20658;-71
2023/01/20 02:00:28;;;;;;;2.58;2.20;;;-0.20;99.90;;;;;;5128363;27;20229;-67
2023/01/20 02:02:55;;;;;;;1.60;1.50;;;0.00;99.90;;;;;;5128566;27;20193;-70
2023/01/20 02:05:25;;;;;;;1.40;1.30;;;-0.10;99.90;;;;;;5128479;27;20223;-70
2023/01/20 02:07:52;;;;;;;1.00;1.00;;;-0.10;99.90;;;;;;5128708;27;20738;-70
2023/01/20 02:10:19;;;;;;;2.20;2.05;;;-0.10;99.90;;;;;;5127898;27;20217;-69
2023/01/20 02:12:50;;;;;;;1.25;1.25;;;-0.20;99.90;;;;;;5128975;27;20246;-67
2023/01/20 02:15:22;;;;;;;2.25;1.25;;;-0.20;99.90;;;;;;5129150;27;20370;-68
2023/01/20 02:18:05;;;;;;;1.63;1.52;;;-0.20;99.90;;;;;;5129402;27;20823;-69
2023/01/20 02:20:57;;;;;;;6.28;1.85;;;-0.10;99.90;;;;;;5117346;27;20253;-68
2023/01/20 02:23:44;;;;;;;5.70;2.90;;;-0.20;99.90;;;;;;5109526;27;20549;-71
2023/01/20 02:26:39;;;;;;;2.47;1.55;;;-0.10;99.90;;;;;;5113941;27;20224;-69
2023/01/20 02:29:39;;;;;;;1.65;1.55;;;0.10;99.90;;;;;;5128107;27;20197;-69
2023/01/20 02:32:18;;;;;;;1.60;1.48;;;-0.20;99.90;;;;;;5127798;27;20278;-69
2023/01/20 02:34:54;;;;;;;4.30;2.08;;;-0.20;99.90;;;;;;5128151;27;20783;-70
2023/01/20 02:37:25;;;;;;;0.68;0.68;;;-0.20;99.90;;;;;;5119848;27;20623;-69
2023/01/20 02:40:02;;;;;;;1.25;1.25;;;-0.20;99.90;;;;;;5113264;27;20194;-69
2023/01/20 02:42:38;;;;;;;0.93;0.93;;;-0.20;99.90;;;;;;5087292;27;20225;-71
2023/01/20 02:45:13;;;;;;;0.95;0.95;;;-0.20;99.90;;;;;;5113302;27;20200;-69
2023/01/20 02:47:50;;;;;;;1.95;1.42;;;-0.10;99.90;;;;;;5128391;27;20683;-70
2023/01/20 02:50:22;;;;;;;1.40;1.30;;;-0.20;99.90;;;;;;5127679;27;20257;-68
2023/01/20 02:52:54;;;;;;;1.73;1.60;;;-0.10;99.90;;;;;;5107835;28;20675;-68
2023/01/20 02:55:26;;;;;;;1.75;1.65;;;-0.10;99.90;;;;;;5117813;27;20257;-69
2023/01/20 02:58:00;;;;;;;1.92;1.83;;;-0.10;99.90;;;;;;5127673;27;20194;-69
2023/01/20 03:00:32;;;;;;;0.30;0.30;;;-0.10;99.90;;;;;;5127340;27;20258;-69
2023/01/20 03:03:05;;;;;;;1.42;1.33;;;-0.10;99.90;;;;;;5128365;28;20201;-69
2023/01/20 03:05:36;;;;;;;0.82;0.82;;;-0.10;99.90;;;;;;5127565;28;20236;-69
2023/01/20 03:08:06;;;;;;;2.45;2.10;;;-0.10;99.90;;;;;;5128145;28;20197;-69
2023/01/20 03:10:35;;;;;;;2.25;1.10;;;-0.10;99.90;;;;;;5127419;28;20706;-69
2023/01/20 03:13:09;;;;;;;2.67;1.73;;;0.00;99.90;;;;;;5128092;28;20273;-69
2023/01/20 03:15:42;;;;;;;1.70;1.60;;;0.00;99.90;;;;;;5128123;28;20221;-69
2023/01/20 03:18:12;;;;;;;6.32;1.58;;;0.00;99.90;;;;;;5127323;28;20283;-68
2023/01/20 03:20:39;;;;;;;2.97;1.35;;;0.00;99.90;;;;;;5127370;28;20273;-69
2023/01/20 03:23:07;;;;;;;3.20;2.60;;;0.00;99.90;;;;;;5128298;28;20199;-70
2023/01/20 03:25:34;;;;;;;1.02;1.02;;;0.00;99.90;;;;;;5127892;28;20320;-69
2023/01/20 03:28:03;;;;;;;1.77;1.67;;;0.00;99.90;;;;;;5127510;28;20249;-69
2023/01/20 03:30:31;;;;;;;0.98;0.90;;;0.00;99.90;;;;;;5127148;28;20228;-69
2023/01/20 03:32:58;;;;;;;2.40;2.30;;;0.00;99.90;;;;;;5127757;28;20570;-69
2023/01/20 03:35:27;;;;;;;2.00;1.65;;;-0.10;99.90;;;;;;5127475;28;20775;-70
2023/01/20 03:37:54;;;;;;;1.80;1.70;;;0.00;99.90;;;;;;5125911;28;20224;-68
2023/01/20 03:40:24;;;;;;;1.55;0.93;;;0.00;99.90;;;;;;5120377;28;20203;-70
2023/01/20 03:42:58;;;;;;;1.45;1.35;;;-0.10;99.90;;;;;;5109273;28;20210;-69
2023/01/20 03:45:35;;;;;;;2.40;1.52;;;-0.50;99.90;;;;;;5126937;28;20216;-70
2023/01/20 03:48:09;;;;;;;2.42;2.13;;;-0.30;99.90;;;;;;5126681;28;20193;-69
2023/01/20 03:50:44;;;;;;;1.25;1.02;;;-0.30;99.90;;;;;;5127645;28;20225;-69
2023/01/20 03:53:22;;;;;;;0.75;0.75;;;-0.40;99.90;;;;;;5127460;28;20200;-69
2023/01/20 03:55:54;;;;;;;0.90;0.90;;;-0.50;99.90;;;;;;5127336;28;20575;-69
2023/01/20 03:58:27;;;;;;;1.80;1.58;;;-0.50;99.90;;;;;;5126934;28;20205;-69
2023/01/20 04:00:56;;;;;;;0.40;0.40;;;-0.40;99.90;;;;;;5127410;28;20308;-69
2023/01/20 04:03:28;;;;;;;2.22;2.13;;;-0.40;99.90;;;;;;5128057;28;20194;-69
2023/01/20 04:05:59;;;;;;;1.45;1.35;;;-0.40;99.90;;;;;;5126398;28;20225;-69
2023/01/20 04:08:31;;;;;;;0.50;0.50;;;-0.50;99.90;;;;;;5129144;27;20687;-69
2023/01/20 04:11:00;;;;;;;0.75;0.75;;;-0.40;99.90;;;;;;5130699;27;20286;-69
2023/01/20 04:13:27;;;;;;;0.60;0.60;;;-0.40;99.90;;;;;;5131319;27;20200;-68
2023/01/20 04:15:54;;;;;;;2.28;1.75;;;-0.30;99.90;;;;;;5130821;27;20229;-69
2023/01/20 04:18:23;;;;;;;2.67;1.67;;;-0.40;99.90;;;;;;5130573;27;20288;-69
2023/01/20 04:20:54;;;;;;;3.42;2.45;;;-0.40;99.90;;;;;;5130475;27;20292;-69
2023/01/20 04:23:28;;;;;;;1.38;1.33;;;-0.40;99.90;;;;;;5131086;27;20202;-69
2023/01/20 04:25:55;;;;;;;1.92;1.83;;;-0.40;99.90;;;;;;5130220;27;20217;-70
2023/01/20 04:28:22;;;;;;;1.20;1.20;;;-0.40;99.90;;;;;;5130237;27;20620;-68
2023/01/20 04:30:49;;;;;;;0.65;0.65;;;-0.40;99.90;;;;;;5130263;27;20209;-69
2023/01/20 04:33:16;;;;;;;1.75;1.65;;;-0.40;99.90;;;;;;5130878;27;20690;-69
2023/01/20 04:35:43;;;;;;;1.55;1.45;;;-0.40;99.90;;;;;;5130726;27;20315;-69
2023/01/20 04:38:09;;;;;;;1.75;1.65;;;-0.50;99.90;;;;;;5114803;27;20208;-69
2023/01/20 04:40:38;;;;;;;1.60;1.50;;;-0.50;99.90;;;;;;5126676;27;20665;-69
2023/01/20 04:43:04;;;;;;;0.85;0.75;;;0.60;99.90;;;;;;5111631;27;20301;-70
2023/01/20 04:45:32;;;;;;;6.20;1.25;;;;;;;;;;5109798;28;20217;-68
2023/01/20 04:47:58;;;;;;;2.13;2.03;;;-0.60;99.90;;;;;;5130179;27;20655;-72
2023/01/20 04:50:25;;;;;;;2.33;2.05;;;-0.70;99.90;;;;;;5130270;27;20217;-68
2023/01/20 04:52:55;;;;;;;2.00;1.80;;;-0.60;99.90;;;;;;5130707;27;20554;-69
2023/01/20 04:55:22;;;;;;;1.38;1.20;;;-0.60;99.90;;;;;;5130778;27;20556;-69
2023/01/20 04:57:50;;;;;;;2.17;1.55;;;-0.70;99.90;;;;;;5130501;27;20189;-69
2023/01/20 05:00:19;;;;;;;1.10;0.90;;;-0.70;99.90;;;;;;5129190;27;20190;-70
2023/01/20 05:02:46;;;;;;;1.52;1.42;;;-0.70;99.90;;;;;;5130601;27;20595;-69
2023/01/20 05:05:13;;;;;;;1.77;1.60;;;-0.70;99.90;;;;;;5130288;27;20201;-68
2023/01/20 05:07:40;;;;;;;2.08;1.88;;;-0.70;99.90;;;;;;5129896;27;20229;-68
2023/01/20 05:10:08;;;;;;;2.00;1.90;;;-0.70;99.90;;;;;;5129830;27;20276;-71
2023/01/20 05:12:35;;;;;;;3.20;1.77;;;;;;;;;;5129760;27;20197;-70
2023/01/20 05:15:04;;;;;;;0.88;0.60;;;-0.70;99.90;;;;;;5130383;27;21012;-70
2023/01/20 05:17:30;;;;;;;0.50;0.50;;;-0.60;99.90;;;;;;5130597;27;20204;-68
2023/01/20 05:19:57;;;;;;;2.25;1.30;;;-0.40;99.90;;;;;;5128768;27;20201;-69
2023/01/20 05:22:24;;;;;;;2.45;1.85;;;-0.40;99.90;;;;;;5130125;27;20248;-69
2023/01/20 05:24:51;;;;;;;1.15;1.05;;;-0.40;99.90;;;;;;5130428;27;20198;-69
2023/01/20 05:27:17;;;;;;;2.78;1.90;;;-0.50;99.90;;;;;;5129677;27;20221;-69
2023/01/20 05:29:44;;;;;;;1.35;0.75;;;-0.50;99.90;;;;;;5129403;27;20195;-68
2023/01/20 05:32:12;;;;;;;0.80;0.80;;;-0.50;99.90;;;;;;5129672;27;20215;-70
2023/01/20 05:34:39;;;;;;;1.08;0.93;;;-0.50;99.90;;;;;;5130279;27;20273;-69
2023/01/20 05:37:06;;;;;;;0.73;0.70;;;-0.50;99.90;;;;;;5123164;27;20228;-68
2023/01/20 05:39:33;;;;;;;1.92;1.65;;;-0.50;99.90;;;;;;5117529;27;20194;-69
2023/01/20 05:42:01;;;;;;;1.58;1.48;;;-0.50;99.90;;;;;;5118316;27;20217;-69
2023/01/20 05:44:28;;;;;;;1.80;1.73;;;-0.60;99.90;;;;;;5109554;28;20208;-69
2023/01/20 05:46:54;;;;;;;1.60;1.48;;;-0.50;99.90;;;;;;5109204;28;20234;-69
2023/01/20 05:49:22;;;;;;;2.22;2.03;;;-0.60;99.90;;;;;;5108827;28;20202;-69
2023/01/20 05:51:49;;;;;;;0.77;0.77;;;-0.60;99.90;;;;;;5128878;27;20224;-68
2023/01/20 05:54:16;;;;;;;1.35;1.25;;;-0.60;99.90;;;;;;5129152;27;20193;-69
2023/01/20 05:56:43;;;;;;;0.70;0.70;;;-0.50;99.90;;;;;;5129346;27;20221;-69
2023/01/20 05:59:10;;;;;;;3.15;1.30;;;-0.60;99.90;;;;;;5128130;27;20312;-70
2023/01/20 06:01:36;;;;;;;2.42;2.28;;;-0.50;99.90;;;;;;5129434;27;20247;-69
2023/01/20 06:04:03;;;;;;;5.00;1.98;;;-0.50;99.90;;;;;;5129102;27;20238;-69
2023/01/20 06:06:32;;;;;;;1.50;1.40;;;-0.50;99.90;;;;;;5129148;27;20229;-70
2023/01/20 06:08:58;;;;;;;0.80;0.80;;;-0.50;99.90;;;;;;5128131;27;20220;-69
2023/01/20 06:11:25;;;;;;;1.40;1.33;;;-0.50;99.90;;;;;;5128694;27;20213;-69
2023/01/20 06:13:52;;;;;;;0.50;0.50;;;-0.40;99.90;;;;;;5129353;27;20204;-69
2023/01/20 06:16:19;;;;;;;1.55;1.48;;;-0.50;99.90;;;;;;5129104;27;20235;-70
2023/01/20 06:18:46;;;;;;;2.97;2.10;;;-0.40;99.90;;;;;;5128578;27;20193;-69
2023/01/20 06:21:13;;;;;;;1.95;1.85;;;-0.40;99.90;;;;;;5128657;27;20217;-69
2023/01/20 06:23:41;;;;;;;1.70;1.50;;;-0.50;99.90;;;;;;5128505;27;20189;-70
2023/01/20 06:26:11;;;;;;;1.67;1.35;;;-0.50;99.90;;;;;;5128611;27;20210;-68
2023/01/20 06:28:38;;;;;;;0.55;0.55;;;-0.40;99.90;;;;;;5110072;27;20224;-68
2023/01/20 06:31:07;;;;;;;1.30;1.02;;;-0.40;99.90;;;;;;5128187;27;20213;-69
2023/01/20 06:33:34;;;;;;;2.72;0.75;;;-0.40;99.90;;;;;;5128795;27;20204;-69
2023/01/20 06:36:01;;;;;;;0.50;0.50;;;-0.40;99.90;;;;;;5128283;27;20224;-69
2023/01/20 06:38:31;;;;;;;1.95;1.38;;;-0.40;99.90;;;;;;5124052;27;20208;-69
2023/01/20 06:41:00;;;;;;;1.77;1.30;;;-0.50;99.90;;;;;;5109825;27;20218;-69
2023/01/20 06:43:28;;;;;;;8.07;1.95;;;-0.50;99.90;;;;;;5125237;27;20193;-69
2023/01/20 06:45:59;;;;;;;1.13;1.05;;;-0.60;99.90;;;;;;5128201;27;20225;-68
2023/01/20 06:48:26;;;;;;;3.38;1.70;;;-0.50;99.90;;;;;;5127592;27;20221;-67
2023/01/20 06:50:53;;;;;;;4.13;3.50;;;-0.60;99.90;;;;;;5121698;27;20746;-68
2023/01/20 06:53:19;;;;;;;1.73;1.65;;;-0.60;99.90;;;;;;5108105;28;20288;-69
2023/01/20 06:55:54;;;;;;;1.50;1.40;;;-0.70;99.90;;;;;;5128036;27;20219;-69
2023/01/20 06:58:23;;;;;;;0.95;0.95;;;-0.70;99.90;;;;;;5127913;27;20193;-69
2023/01/20 07:00:50;;;;;;;1.67;1.63;;;-0.70;99.90;;;;;;5127611;27;20217;-69
2023/01/20 07:03:17;;;;;;;4.55;1.77;;;-0.70;99.90;;;;;;5127674;27;20667;-69
2023/01/20 07:05:44;;;;;;;0.35;0.35;;;-0.70;99.90;;;;;;5127248;27;20226;-69
2023/01/20 07:08:11;;;;;;;1.02;0.88;;;-0.60;99.90;;;;;;5127550;27;20701;-69
2023/01/20 07:10:38;;;;;;;3.00;2.80;;;-0.70;99.90;;;;;;5127506;28;20742;-69
2023/01/20 07:13:05;;;;;;;6.03;2.00;;;-0.60;99.90;;;;;;5128514;28;20208;-69
2023/01/20 07:15:33;;;;;;;0.75;0.75;;;-0.60;99.90;;;;;;5127495;28;20217;-70
2023/01/20 07:17:59;;;;;;;2.80;1.70;;;-0.50;99.90;;;;;;5128204;28;20204;-69
2023/01/20 07:20:26;;;;;;;0.80;0.80;;;-0.50;99.90;;;;;;5127689;28;20212;-68
2023/01/20 07:22:53;;;;;;;1.02;0.95;;;-0.50;99.90;;;;;;5128865;28;20334;-69
2023/01/20 07:25:20;;;;;;;1.15;1.10;;;-0.50;99.90;;;;;;5126954;28;20205;-68
2023/01/20 07:27:47;;;;;;;0.85;0.85;;;-0.40;99.90;;;;;;5116712;28;20770;-70
2023/01/20 07:30:14;;;;;;;1.50;1.40;;;-0.40;99.90;;;;;;5106921;28;20202;-70
2023/01/20 07:32:42;;;;;;;1.55;1.45;;;-0.40;99.90;;;;;;5113462;28;20276;-68
2023/01/20 07:35:09;;;;;;;1.25;0.85;;;-0.40;99.90;;;;;;5110104;28;20293;-70
2023/01/20 07:37:36;;;;;;;1.50;1.40;;;-0.30;99.90;;;;;;5115935;28;20749;-70
2023/01/20 07:40:03;;;;;;;2.58;1.88;;;-0.30;99.90;;;;;;5120339;28;20710;-67
2023/01/20 07:42:30;;;;;;;4.85;1.13;;;-0.30;99.90;;;;;;5126470;27;20204;-68
2023/01/20 07:44:56;;;;;;;2.17;1.75;;;-0.40;99.90;;;;;;5131110;27;20204;-68
2023/01/20 07:47:23;;;;;;;0.60;0.60;;;-0.30;99.90;;;;;;5131904;27;20453;-68
2023/01/20 07:49:51;;;;;;;2.63;1.73;;;-0.30;99.90;;;;;;5131536;27;20219;-69
2023/01/20 07:52:18;;;;;;;0.90;0.70;;;-0.20;99.90;;;;;;5114876;27;20240;-68
2023/01/20 07:54:45;;;;;;;0.90;0.60;;;-0.30;99.90;;;;;;5130212;27;20845;-67
2023/01/20 07:57:12;;;;;;;0.85;0.85;;;-0.20;99.90;;;;;;5130911;27;20308;-69
2023/01/20 07:59:38;;;;;;;1.48;1.13;;;-0.20;99.90;;;;;;5131067;27;20189;-68
2023/01/20 08:02:05;;;;;;;0.93;0.93;;;-0.10;99.90;;;;;;5131373;27;20221;-68
2023/01/20 08:04:33;;;;;;;2.15;2.05;;;-0.10;99.90;;;;;;5131939;27;20272;-68
2023/01/20 08:07:02;;;;;;;1.15;0.85;;;-0.10;99.90;;;;;;5131108;27;20651;-68
2023/01/20 08:09:29;;;;;;;1.35;1.35;;;-0.10;99.90;;;;;;5131206;27;20201;-68
2023/01/20 08:11:56;;;;;;;3.22;1.55;;;0.00;99.90;;;;;;5130817;27;20221;-67
2023/01/20 08:14:22;;;;;;;1.30;0.85;;;0.00;99.90;;;;;;5131865;27;20205;-66
2023/01/20 08:16:49;;;;;;;1.35;1.35;;;0.00;99.90;;;;;;5131354;27;20229;-68
2023/01/20 08:19:16;;;;;;;1.38;1.23;;;0.10;99.90;;;;;;5130297;27;20201;-68
2023/01/20 08:21:43;;;;;;;1.65;1.40;;;0.00;99.90;;;;;;5116479;27;20607;-68
2023/01/20 08:24:11;;;;;;;1.00;1.00;;;0.00;99.90;;;;;;5131055;27;20197;-68
2023/01/20 08:26:38;;;;;;;1.10;1.10;;;0.10;99.90;;;;;;5131068;27;20228;-67
2023/01/20 08:29:07;;;;;;;1.88;1.77;;;0.10;99.90;;;;;;5130691;27;20185;-68
2023/01/20 08:31:34;;;;;;;2.47;1.45;;;0.00;99.90;;;;;;5130190;27;20221;-68
2023/01/20 08:34:01;;;;;;;1.08;1.08;;;0.00;99.90;;;;;;5131519;27;20643;-67
2023/01/20 08:36:30;;;;;;;1.60;1.50;;;0.00;99.90;;;;;;5130491;27;20221;-68
2023/01/20 08:39:00;;;;;;;2.25;1.88;;;0.10;99.90;;;;;;5125208;27;20200;-67
2023/01/20 08:41:31;;;;;;;1.23;1.13;;;0.10;99.90;;;;;;5129111;27;20217;-69
2023/01/20 08:43:59;;;;;;;1.48;0.82;;;0.20;99.90;;;;;;5130254;27;20200;-67
2023/01/20 08:46:26;;;;;;;1.63;1.35;;;0.20;99.90;;;;;;5130883;27;20221;-68
2023/01/20 08:48:53;;;;;;;2.75;1.85;;;0.20;99.90;;;;;;5129956;27;20229;-68
2023/01/20 08:51:23;;;;;;;4.72;1.15;;;0.30;99.90;;;;;;5130347;27;20227;-67
2023/01/20 08:53:50;;;;;;;0.98;0.98;;;0.30;99.90;;;;;;5130268;27;20578;-67
2023/01/20 08:56:18;;;;;;;1.08;1.05;;;0.40;99.90;;;;;;5130614;27;20213;-68
2023/01/20 08:58:46;;;;;;;1.52;1.40;;;0.30;99.90;;;;;;5127062;27;20202;-68
2023/01/20 09:01:15;;;;;;;2.47;1.58;;;0.40;99.90;;;;;;5130361;27;20232;-68
2023/01/20 09:03:43;;;;;;;2.47;1.33;;;0.40;99.90;;;;;;5130516;27;20196;-68
2023/01/20 09:06:11;;;;;;;1.38;1.27;;;0.40;99.90;;;;;;5114604;27;20221;-67
2023/01/20 09:08:38;;;;;;;1.38;1.27;;;0.40;99.90;;;;;;5109522;27;20226;-68
2023/01/20 09:11:07;;;;;;;3.75;3.45;;;0.40;99.90;;;;;;5111251;27;20309;-67
2023/01/20 09:13:34;;;;;;;0.60;0.60;;;0.40;99.90;;;;;;5109932;28;20205;-68
2023/01/20 09:16:03;;;;;;;8.77;2.28;;;0.30;99.90;;;;;;5110310;27;20228;-68
2023/01/20 09:18:31;;;;;;;2.15;2.05;;;0.30;99.90;;;;;;5109948;27;20194;-67
2023/01/20 09:20:58;;;;;;;1.75;1.05;;;0.40;99.90;;;;;;5118678;27;20221;-67
2023/01/20 09:23:25;;;;;;;3.00;0.82;;;0.30;99.90;;;;;;5110125;28;20202;-68
2023/01/20 09:25:52;;;;;;;1.23;1.23;;;0.40;99.90;;;;;;5109734;27;20218;-68
2023/01/20 09:28:18;;;;;;;1.67;1.10;;;0.50;99.90;;;;;;5127072;27;20624;-68
2023/01/20 09:30:45;;;;;;;1.85;1.75;;;0.50;99.90;;;;;;5129227;27;20217;-68
2023/01/20 09:33:14;;;;;;;0.85;0.85;;;0.50;99.90;;;;;;5130025;27;20631;-68
2023/01/20 09:35:40;;;;;;;1.70;1.60;;;0.50;99.90;;;;;;5129822;27;20304;-68
2023/01/20 09:43:57;;;;;;;6.88;2.83;;;0.60;99.90;;;;;;5130057;27;20518;-67
2023/01/20 09:46:35;;;;;;;1.77;1.05;;;0.70;99.90;;;;;;5129840;27;20596;-68
2023/01/20 09:54:59;;;;;;;2.08;1.38;;;0.90;99.90;;;;;;5129493;27;20668;-68
2023/01/20 09:57:31;;;;;;;2.28;1.85;;;1.10;99.90;;;;;;5126129;27;20694;-68
2023/01/20 10:00:04;;;;;;;1.52;1.42;;;1.10;99.90;;;;;;5124083;27;20671;-67
2023/01/20 10:02:34;;;;;;;5.47;2.50;;;1.10;99.90;;;;;;5123010;27;20194;-68
2023/01/20 10:05:10;;;;;;;1.08;1.08;;;1.20;99.90;;;;;;5129209;27;20213;-68
2023/01/20 10:07:43;;;;;;;2.30;1.88;;;1.20;99.90;;;;;;5129178;27;20224;-68
2023/01/20 10:10:16;;;;;;;2.05;1.95;;;1.20;99.90;;;;;;5128437;27;20666;-68
2023/01/20 10:12:47;;;;;;;2.40;1.83;;;1.10;99.90;;;;;;5128481;27;20204;-68
2023/01/20 10:15:18;;;;;;;3.17;2.95;;;1.10;99.90;;;;;;5129318;27;20213;-68
2023/01/20 10:17:51;;;;;;;2.58;1.10;;;1.00;99.90;;;;;;5129202;27;20250;-68
2023/01/20 10:20:26;;;;;;;4.30;2.10;;;1.00;99.90;;;;;;5128296;27;20197;-68
2023/01/20 10:22:58;;;;;;;1.75;1.60;;;1.00;99.90;;;;;;5129328;27;20197;-68
2023/01/20 10:25:28;;;;;;;0.82;0.82;;;1.00;99.90;;;;;;5128634;27;20222;-67
2023/01/20 10:27:57;;;;;;;1.63;1.52;;;1.00;99.90;;;;;;5126563;27;20221;-67
2023/01/20 10:30:26;;;;;;;3.33;1.52;;;0.90;99.90;;;;;;5121972;27;20548;-68
2023/01/20 10:32:57;;;;;;;1.15;0.90;;;0.80;99.90;;;;;;5125986;27;20196;-68
2023/01/20 10:35:27;;;;;;;1.60;1.10;;;0.70;99.90;;;;;;5128294;27;20225;-68
2023/01/20 10:37:57;;;;;;;1.05;1.05;;;0.70;99.90;;;;;;5115563;27;20234;-67
2023/01/20 10:40:32;;;;;;;2.05;1.95;;;0.70;99.90;;;;;;5125163;27;20304;-69
2023/01/20 10:43:04;;;;;;;1.15;1.13;;;0.70;99.90;;;;;;5128125;27;20212;-68
2023/01/20 10:45:42;;;;;;;2.08;1.17;;;0.80;99.90;;;;;;5128827;27;20232;-68
2023/01/20 10:48:17;;;;;;;3.78;2.30;;;0.80;99.90;;;;;;5127674;27;20221;-68
2023/01/20 10:50:54;;;;;;;1.75;1.63;;;0.70;99.90;;;;;;5127976;27;20686;-69
2023/01/20 10:53:41;;;;;;;0.75;0.75;;;0.90;99.90;;;;;;5128914;27;20201;-67
2023/01/20 10:56:36;;;;;;;1.00;0.88;;;0.80;99.90;;;;;;5128352;27;20232;-67
2023/01/20 10:59:09;;;;;;;3.05;0.95;;;0.90;99.90;;;;;;5127662;27;20200;-68
2023/01/20 11:01:36;;;;;;;1.30;1.30;;;1.10;99.90;;;;;;5128288;27;20235;-68
2023/01/20 11:04:03;;;;;;;1.60;1.00;;;1.00;99.90;;;;;;5127631;27;20208;-70
2023/01/20 11:06:32;;;;;;;1.00;1.00;;;1.00;99.90;;;;;;5123050;27;20302;-67
2023/01/20 11:09:18;;;;;;;1.92;1.83;;;1.00;99.90;;;;;;5127203;27;20209;-68
2023/01/20 11:11:45;;;;;;;1.40;1.02;;;1.10;99.90;;;;;;5128476;28;20225;-68
2023/01/20 11:14:12;;;;;;;0.70;0.70;;;1.10;99.90;;;;;;5127146;28;20217;-68
2023/01/20 11:16:41;;;;;;;2.78;1.30;;;1.20;99.90;;;;;;5128084;27;20646;-71
2023/01/20 11:19:07;;;;;;;1.30;1.20;;;1.30;99.90;;;;;;5121219;27;20194;-68
2023/01/20 11:21:36;;;;;;;3.03;1.58;;;1.50;99.90;;;;;;5117331;27;20222;-68
2023/01/20 11:24:23;;;;;;;1.98;1.63;;;1.40;99.90;;;;;;5112269;28;20205;-68
2023/01/20 11:26:50;;;;;;;0.85;0.70;;;1.50;99.90;;;;;;5123611;27;20297;-68
2023/01/20 11:29:28;;;;;;;1.17;1.10;;;1.40;98.50;;;;;;5110999;27;20216;-68
2023/01/20 11:31:58;;;;;;;3.03;2.83;;;1.40;98.60;;;;;;5122563;27;20777;-68
2023/01/20 11:34:27;;;;;;;13.80;6.28;;;1.50;99.10;;;;;;5132104;27;21055;-68
2023/01/20 11:37:19;;;;;;;4.20;1.60;;;1.50;99.20;;;;;;5131751;27;20329;-68
2023/01/20 11:39:59;;;;;;;4.35;4.10;;;1.60;99.20;;;;;;5123814;27;20220;-68
2023/01/20 11:42:27;;;;;;;3.05;2.75;;;1.90;99.90;;;;;;5128194;27;20967;-67
2023/01/20 11:44:56;;;;;;;0.90;0.90;;;1.80;98.60;;;;;;5126018;27;20222;-68
2023/01/20 11:47:26;;;;;;;1.83;1.73;;;1.80;98.20;;;;;;5111454;27;20329;-68
2023/01/20 11:50:19;;;;;;;0.70;0.70;;;1.90;98.80;;;;;;5113040;27;20221;-68
2023/01/20 11:52:47;;;;;;;0.60;0.60;;;2.00;99.90;;;;;;5120580;27;20217;-69
2023/01/20 11:55:16;;;;;;;1.55;1.23;;;2.10;98.50;;;;;;5132114;27;20194;-67
2023/01/20 11:57:45;;;;;;;1.63;1.50;;;2.00;97.40;;;;;;5131495;27;20208;-67
2023/01/20 12:00:29;;;;;;;3.75;2.75;;;2.20;97.90;;;;;;5130760;27;20197;-68
2023/01/20 12:03:02;;;;;;;3.25;1.42;;;2.20;97.90;;;;;;5119100;27;20595;-69
2023/01/20 12:05:34;;;;;;;5.38;4.88;;;2.10;97.30;;;;;;5130588;27;20229;-67
2023/01/20 12:08:04;;;;;;;5.45;3.47;;;2.10;97.80;;;;;;5110772;27;20221;-69
2023/01/20 12:10:35;;;;;;;2.97;1.20;;;2.20;98.30;;;;;;5114062;27;20304;-69
2023/01/20 12:13:07;;;;;;;3.30;1.40;;;2.20;97.70;;;;;;5121848;27;20507;-70
2023/01/20 12:15:40;;;;;;;0.75;0.75;;;2.10;95.80;;;;;;5126247;27;20318;-68
2023/01/20 12:18:12;;;;;;;1.67;1.55;;;2.20;96.60;;;;;;5130159;27;20563;-70
2023/01/20 12:20:44;;;;;;;0.65;0.65;;;2.30;96.90;;;;;;5131641;27;20221;-68
2023/01/20 12:23:20;;;;;;;2.45;1.10;;;2.40;96.20;;;;;;5131266;27;20201;-68
2023/01/20 12:25:53;;;;;;;0.98;0.93;;;2.00;98.50;;;;;;5131294;27;20224;-68
2023/01/20 12:28:26;;;;;;;0.30;0.20;;;2.40;94.90;;;;;;5129302;27;20221;-69
2023/01/20 12:31:00;;;;;;;0.40;0.35;;;2.40;94.90;;;;;;5127069;27;20221;-68
2023/01/20 12:33:30;;;;;;;0.52;0.52;;;2.30;93.10;;;;;;5110521;27;20212;-68
2023/01/20 12:36:20;;;;;;;0.60;0.60;;;2.30;92.90;;;;;;5124559;27;20221;-69
2023/01/20 12:39:09;;;;;;;1.30;0.60;;;2.20;94.10;;;;;;5114378;27;20438;-68
2023/01/20 12:41:55;;;;;;;0.40;0.40;;;2.20;95.40;;;;;;5103673;27;20240;-68
2023/01/20 12:44:27;;;;;;;0.60;0.60;;;2.10;94.10;;;;;;5110543;28;20259;-67
2023/01/20 12:47:04;;;;;;;0.88;0.52;;;2.20;93.70;;;;;;5114088;27;20300;-68
2023/01/20 12:49:46;;;;;;;0.50;0.50;;;2.20;93.30;;;;;;5130300;27;20225;-69
2023/01/20 12:52:32;;;;;;;1.10;0.90;;;2.30;93.80;;;;;;5130572;27;20225;-67
2023/01/20 12:55:15;;;;;;;1.25;0.95;;;2.30;93.20;;;;;;5130718;27;20194;-68
2023/01/20 12:57:57;;;;;;;0.73;0.73;;;2.40;93.20;;;;;;5113668;27;20198;-69
2023/01/20 13:00:45;;;;;;;0.30;0.20;;;2.70;93.00;;;;;;5122475;27;20588;-70
2023/01/20 13:03:38;;;;;;;0.57;0.57;;;2.90;92.70;;;;;;5129121;27;20204;-69
2023/01/20 13:06:31;;;;;;;0.30;0.20;;;2.90;92.50;;;;;;5111136;27;20221;-67
2023/01/20 13:09:09;;;;;;;0.50;0.50;;;2.90;91.10;;;;;;5129160;27;20224;-67
2023/01/20 13:11:52;;;;;;;0.40;0.40;;;2.80;90.90;;;;;;5130231;27;20216;-68
2023/01/20 13:14:23;;;;;;;0.82;0.82;;;2.80;92.00;;;;;;5129827;27;20200;-67
2023/01/20 13:17:00;;;;;;;7.45;1.15;;;2.70;91.00;;;;;;5129474;27;20710;-69
2023/01/20 13:19:30;;;;;;;1.52;0.90;;;2.60;91.70;;;;;;5129370;27;20678;-68
2023/01/20 13:22:02;;;;;;;1.30;1.00;;;2.40;92.00;;;;;;5129811;27;20406;-68